sensor_id;sensor_type;location;lat;lon;timestamp;P1;durP1;ratioP1;P2;durP2;ratioP2
76065;SDS011;64763;48.928;8.474;2023-05-10T00:00:04;3.10;;;2.38;;
76065;SDS011;64763;48.928;8.474;2023-05-10T00:02:30;5.65;;;2.17;;
76065;SDS011;64763;48.928;8.474;2023-05-10T00:04:55;2.95;;;2.15;;
76065;SDS011;64763;48.928;8.474;2023-05-10T00:07:20;2.88;;;2.05;;
76065;SDS011;64763;48.928;8.474;2023-05-10T00:09:46;3.10;;;2.35;;
76065;SDS011;64763;48.928;8.474;2023-05-10T00:12:11;2.60;;;2.10;;
76065;SDS011;64763;48.928;8.474;2023-05-10T00:14:37;2.80;;;2.00;;
76065;SDS011;64763;48.928;8.474;2023-05-10T00:17:02;3.53;;;2.05;;
76065;SDS011;64763;48.928;8.474;2023-05-10T00:19:27;2.70;;;1.92;;
76065;SDS011;64763;48.928;8.474;2023-05-10T00:21:53;2.50;;;1.92;;
76065;SDS011;64763;48.928;8.474;2023-05-10T00:24:18;3.28;;;2.25;;
76065;SDS011;64763;48.928;8.474;2023-05-10T00:26:43;3.03;;;2.20;;
76065;SDS011;64763;48.928;8.474;2023-05-10T00:29:09;2.83;;;2.17;;
76065;SDS011;64763;48.928;8.474;2023-05-10T00:31:34;3.17;;;2.50;;
76065;SDS011;64763;48.928;8.474;2023-05-10T00:33:59;3.28;;;2.38;;
76065;SDS011;64763;48.928;8.474;2023-05-10T00:36:25;4.97;;;2.42;;
76065;SDS011;64763;48.928;8.474;2023-05-10T00:38:51;3.05;;;2.42;;
76065;SDS011;64763;48.928;8.474;2023-05-10T00:41:16;4.07;;;2.55;;
76065;SDS011;64763;48.928;8.474;2023-05-10T00:43:41;4.53;;;2.90;;
76065;SDS011;64763;48.928;8.474;2023-05-10T00:46:07;3.55;;;2.78;;
76065;SDS011;64763;48.928;8.474;2023-05-10T00:48:32;3.90;;;3.13;;
76065;SDS011;64763;48.928;8.474;2023-05-10T00:50:58;3.80;;;3.05;;
76065;SDS011;64763;48.928;8.474;2023-05-10T00:53:23;6.68;;;3.00;;
76065;SDS011;64763;48.928;8.474;2023-05-10T00:55:49;4.95;;;3.65;;
76065;SDS011;64763;48.928;8.474;2023-05-10T00:58:15;4.72;;;3.72;;
76065;SDS011;64763;48.928;8.474;2023-05-10T01:00:41;4.82;;;3.70;;
76065;SDS011;64763;48.928;8.474;2023-05-10T01:03:09;4.43;;;3.45;;
76065;SDS011;64763;48.928;8.474;2023-05-10T01:05:35;4.22;;;3.40;;
76065;SDS011;64763;48.928;8.474;2023-05-10T01:14:44;5.20;;;3.80;;
76065;SDS011;64763;48.928;8.474;2023-05-10T01:17:10;6.13;;;3.60;;
76065;SDS011;64763;48.928;8.474;2023-05-10T01:19:37;6.35;;;4.00;;
76065;SDS011;64763;48.928;8.474;2023-05-10T01:22:27;5.45;;;3.83;;
76065;SDS011;64763;48.928;8.474;2023-05-10T01:38:18;6.10;;;4.00;;
76065;SDS011;64763;48.928;8.474;2023-05-10T01:43:28;5.78;;;3.80;;
76065;SDS011;64763;48.928;8.474;2023-05-10T01:46:00;5.53;;;3.63;;
76065;SDS011;64763;48.928;8.474;2023-05-10T01:48:35;4.93;;;3.40;;
76065;SDS011;64763;48.928;8.474;2023-05-10T01:51:12;6.93;;;4.80;;
76065;SDS011;64763;48.928;8.474;2023-05-10T01:53:41;6.57;;;4.53;;
76065;SDS011;64763;48.928;8.474;2023-05-10T01:56:07;6.03;;;3.95;;
76065;SDS011;64763;48.928;8.474;2023-05-10T01:58:33;7.25;;;4.38;;
76065;SDS011;64763;48.928;8.474;2023-05-10T02:01:01;7.45;;;4.32;;
76065;SDS011;64763;48.928;8.474;2023-05-10T02:03:28;10.23;;;3.83;;
76065;SDS011;64763;48.928;8.474;2023-05-10T02:05:55;6.78;;;3.97;;
76065;SDS011;64763;48.928;8.474;2023-05-10T02:08:21;5.20;;;3.80;;
76065;SDS011;64763;48.928;8.474;2023-05-10T02:10:47;6.43;;;3.83;;
76065;SDS011;64763;48.928;8.474;2023-05-10T02:13:14;7.35;;;3.50;;
76065;SDS011;64763;48.928;8.474;2023-05-10T02:15:41;5.97;;;3.53;;
76065;SDS011;64763;48.928;8.474;2023-05-10T02:18:06;5.15;;;3.67;;
76065;SDS011;64763;48.928;8.474;2023-05-10T02:20:34;5.18;;;3.53;;
76065;SDS011;64763;48.928;8.474;2023-05-10T02:22:59;5.80;;;3.95;;
76065;SDS011;64763;48.928;8.474;2023-05-10T02:25:26;6.18;;;3.55;;
76065;SDS011;64763;48.928;8.474;2023-05-10T02:27:55;5.85;;;3.88;;
76065;SDS011;64763;48.928;8.474;2023-05-10T02:30:21;6.15;;;4.18;;
76065;SDS011;64763;48.928;8.474;2023-05-10T02:32:48;6.78;;;4.50;;
76065;SDS011;64763;48.928;8.474;2023-05-10T02:35:14;7.15;;;4.70;;
76065;SDS011;64763;48.928;8.474;2023-05-10T02:37:40;5.70;;;4.20;;
76065;SDS011;64763;48.928;8.474;2023-05-10T02:40:06;5.22;;;3.83;;
76065;SDS011;64763;48.928;8.474;2023-05-10T02:42:33;6.95;;;4.25;;
76065;SDS011;64763;48.928;8.474;2023-05-10T02:45:01;5.72;;;4.10;;
76065;SDS011;64763;48.928;8.474;2023-05-10T02:47:30;7.32;;;4.30;;
76065;SDS011;64763;48.928;8.474;2023-05-10T02:49:56;6.07;;;4.32;;
76065;SDS011;64763;48.928;8.474;2023-05-10T02:52:24;5.72;;;4.20;;
76065;SDS011;64763;48.928;8.474;2023-05-10T02:54:52;5.55;;;4.07;;
76065;SDS011;64763;48.928;8.474;2023-05-10T02:57:22;7.10;;;4.72;;
76065;SDS011;64763;48.928;8.474;2023-05-10T02:59:51;5.78;;;3.63;;
76065;SDS011;64763;48.928;8.474;2023-05-10T03:02:16;6.32;;;3.58;;
76065;SDS011;64763;48.928;8.474;2023-05-10T03:04:41;4.82;;;3.70;;
76065;SDS011;64763;48.928;8.474;2023-05-10T03:07:07;4.85;;;3.90;;
76065;SDS011;64763;48.928;8.474;2023-05-10T03:09:32;7.65;;;4.18;;
76065;SDS011;64763;48.928;8.474;2023-05-10T03:14:57;4.38;;;3.17;;
76065;SDS011;64763;48.928;8.474;2023-05-10T03:17:36;5.80;;;3.67;;
76065;SDS011;64763;48.928;8.474;2023-05-10T03:20:08;7.13;;;4.07;;
76065;SDS011;64763;48.928;8.474;2023-05-10T03:22:46;5.75;;;3.65;;
76065;SDS011;64763;48.928;8.474;2023-05-10T03:25:12;5.47;;;3.80;;
76065;SDS011;64763;48.928;8.474;2023-05-10T03:27:41;5.72;;;4.35;;
76065;SDS011;64763;48.928;8.474;2023-05-10T03:30:08;4.82;;;3.40;;
76065;SDS011;64763;48.928;8.474;2023-05-10T03:32:36;6.75;;;4.35;;
76065;SDS011;64763;48.928;8.474;2023-05-10T03:35:11;5.53;;;3.33;;
76065;SDS011;64763;48.928;8.474;2023-05-10T03:37:38;5.40;;;3.85;;
76065;SDS011;64763;48.928;8.474;2023-05-10T03:40:03;6.93;;;4.18;;
76065;SDS011;64763;48.928;8.474;2023-05-10T03:42:29;4.82;;;3.90;;
76065;SDS011;64763;48.928;8.474;2023-05-10T03:44:55;5.15;;;3.28;;
76065;SDS011;64763;48.928;8.474;2023-05-10T03:47:20;4.25;;;3.20;;
76065;SDS011;64763;48.928;8.474;2023-05-10T03:49:45;5.53;;;3.10;;
76065;SDS011;64763;48.928;8.474;2023-05-10T03:52:11;5.35;;;3.33;;
76065;SDS011;64763;48.928;8.474;2023-05-10T03:54:36;4.63;;;3.00;;
76065;SDS011;64763;48.928;8.474;2023-05-10T03:57:02;5.47;;;3.33;;
76065;SDS011;64763;48.928;8.474;2023-05-10T03:59:27;3.97;;;2.92;;
76065;SDS011;64763;48.928;8.474;2023-05-10T04:01:53;4.85;;;3.40;;
76065;SDS011;64763;48.928;8.474;2023-05-10T04:04:18;11.65;;;4.28;;
76065;SDS011;64763;48.928;8.474;2023-05-10T04:06:45;4.97;;;3.20;;
76065;SDS011;64763;48.928;8.474;2023-05-10T04:09:11;8.55;;;3.85;;
76065;SDS011;64763;48.928;8.474;2023-05-10T04:11:36;4.90;;;3.55;;
76065;SDS011;64763;48.928;8.474;2023-05-10T04:14:02;5.63;;;3.67;;
76065;SDS011;64763;48.928;8.474;2023-05-10T04:16:27;4.03;;;3.15;;
76065;SDS011;64763;48.928;8.474;2023-05-10T04:18:52;11.88;;;4.35;;
76065;SDS011;64763;48.928;8.474;2023-05-10T04:21:18;8.18;;;4.10;;
76065;SDS011;64763;48.928;8.474;2023-05-10T04:23:43;5.15;;;3.30;;
76065;SDS011;64763;48.928;8.474;2023-05-10T04:26:08;4.95;;;3.78;;
76065;SDS011;64763;48.928;8.474;2023-05-10T04:28:34;4.97;;;3.42;;
76065;SDS011;64763;48.928;8.474;2023-05-10T04:31:03;6.03;;;3.53;;
76065;SDS011;64763;48.928;8.474;2023-05-10T04:33:30;4.55;;;3.42;;
76065;SDS011;64763;48.928;8.474;2023-05-10T04:35:55;4.68;;;3.67;;
76065;SDS011;64763;48.928;8.474;2023-05-10T04:38:21;5.15;;;3.40;;
76065;SDS011;64763;48.928;8.474;2023-05-10T04:40:46;4.75;;;3.25;;
76065;SDS011;64763;48.928;8.474;2023-05-10T04:43:11;5.78;;;3.78;;
76065;SDS011;64763;48.928;8.474;2023-05-10T04:45:37;5.38;;;3.75;;
76065;SDS011;64763;48.928;8.474;2023-05-10T04:48:02;6.45;;;3.67;;
76065;SDS011;64763;48.928;8.474;2023-05-10T04:50:27;6.28;;;4.30;;
76065;SDS011;64763;48.928;8.474;2023-05-10T04:52:52;5.25;;;3.90;;
76065;SDS011;64763;48.928;8.474;2023-05-10T04:55:18;4.53;;;3.53;;
76065;SDS011;64763;48.928;8.474;2023-05-10T04:57:43;5.53;;;3.80;;
76065;SDS011;64763;48.928;8.474;2023-05-10T05:00:10;6.47;;;3.90;;
76065;SDS011;64763;48.928;8.474;2023-05-10T05:02:35;5.78;;;4.28;;
76065;SDS011;64763;48.928;8.474;2023-05-10T05:05:01;4.40;;;3.30;;
76065;SDS011;64763;48.928;8.474;2023-05-10T05:07:26;4.75;;;3.50;;
76065;SDS011;64763;48.928;8.474;2023-05-10T05:09:52;6.45;;;3.58;;
76065;SDS011;64763;48.928;8.474;2023-05-10T05:12:17;5.90;;;3.72;;
76065;SDS011;64763;48.928;8.474;2023-05-10T05:14:42;6.95;;;4.00;;
76065;SDS011;64763;48.928;8.474;2023-05-10T05:17:08;5.22;;;3.80;;
76065;SDS011;64763;48.928;8.474;2023-05-10T05:19:33;5.28;;;4.07;;
76065;SDS011;64763;48.928;8.474;2023-05-10T05:21:58;5.90;;;3.95;;
76065;SDS011;64763;48.928;8.474;2023-05-10T05:24:24;5.15;;;3.47;;
76065;SDS011;64763;48.928;8.474;2023-05-10T05:26:49;4.45;;;3.13;;
76065;SDS011;64763;48.928;8.474;2023-05-10T05:29:14;5.05;;;3.10;;
76065;SDS011;64763;48.928;8.474;2023-05-10T05:31:40;5.95;;;2.83;;
76065;SDS011;64763;48.928;8.474;2023-05-10T05:34:05;6.57;;;2.85;;
76065;SDS011;64763;48.928;8.474;2023-05-10T05:36:30;4.63;;;2.80;;
76065;SDS011;64763;48.928;8.474;2023-05-10T05:38:56;4.75;;;2.50;;
76065;SDS011;64763;48.928;8.474;2023-05-10T05:41:22;3.67;;;2.17;;
76065;SDS011;64763;48.928;8.474;2023-05-10T05:43:49;3.20;;;2.20;;
76065;SDS011;64763;48.928;8.474;2023-05-10T05:46:14;3.58;;;2.40;;
76065;SDS011;64763;48.928;8.474;2023-05-10T05:48:40;3.40;;;2.22;;
76065;SDS011;64763;48.928;8.474;2023-05-10T05:51:05;4.25;;;2.30;;
76065;SDS011;64763;48.928;8.474;2023-05-10T05:53:30;4.53;;;2.60;;
76065;SDS011;64763;48.928;8.474;2023-05-10T05:55:57;3.45;;;2.30;;
76065;SDS011;64763;48.928;8.474;2023-05-10T05:58:23;4.45;;;1.98;;
76065;SDS011;64763;48.928;8.474;2023-05-10T06:00:49;4.13;;;2.63;;
76065;SDS011;64763;48.928;8.474;2023-05-10T06:03:15;2.95;;;2.30;;
76065;SDS011;64763;48.928;8.474;2023-05-10T06:05:40;3.10;;;2.35;;
76065;SDS011;64763;48.928;8.474;2023-05-10T06:08:05;4.85;;;2.60;;
76065;SDS011;64763;48.928;8.474;2023-05-10T06:10:31;3.20;;;2.90;;
76065;SDS011;64763;48.928;8.474;2023-05-10T06:12:56;5.07;;;2.72;;
76065;SDS011;64763;48.928;8.474;2023-05-10T06:15:22;3.65;;;2.63;;
76065;SDS011;64763;48.928;8.474;2023-05-10T06:17:47;3.40;;;2.85;;
76065;SDS011;64763;48.928;8.474;2023-05-10T06:20:14;4.65;;;2.90;;
76065;SDS011;64763;48.928;8.474;2023-05-10T06:22:40;5.72;;;2.38;;
76065;SDS011;64763;48.928;8.474;2023-05-10T06:25:05;5.50;;;3.30;;
76065;SDS011;64763;48.928;8.474;2023-05-10T06:27:31;3.38;;;2.40;;
76065;SDS011;64763;48.928;8.474;2023-05-10T06:29:56;3.50;;;1.92;;
76065;SDS011;64763;48.928;8.474;2023-05-10T06:32:24;4.53;;;1.95;;
76065;SDS011;64763;48.928;8.474;2023-05-10T06:34:50;3.22;;;2.00;;
76065;SDS011;64763;48.928;8.474;2023-05-10T06:37:15;3.95;;;1.98;;
76065;SDS011;64763;48.928;8.474;2023-05-10T06:39:41;3.78;;;1.80;;
76065;SDS011;64763;48.928;8.474;2023-05-10T06:42:06;2.38;;;1.67;;
76065;SDS011;64763;48.928;8.474;2023-05-10T06:44:31;2.97;;;1.83;;
76065;SDS011;64763;48.928;8.474;2023-05-10T06:46:57;2.42;;;1.48;;
76065;SDS011;64763;48.928;8.474;2023-05-10T06:49:22;2.30;;;1.50;;
76065;SDS011;64763;48.928;8.474;2023-05-10T06:51:48;3.22;;;2.05;;
76065;SDS011;64763;48.928;8.474;2023-05-10T06:54:14;2.55;;;1.50;;
76065;SDS011;64763;48.928;8.474;2023-05-10T06:56:39;2.08;;;1.40;;
76065;SDS011;64763;48.928;8.474;2023-05-10T06:59:04;3.45;;;1.60;;
76065;SDS011;64763;48.928;8.474;2023-05-10T07:01:30;2.10;;;1.50;;
76065;SDS011;64763;48.928;8.474;2023-05-10T07:03:55;2.28;;;1.40;;
76065;SDS011;64763;48.928;8.474;2023-05-10T07:06:20;1.90;;;1.42;;
76065;SDS011;64763;48.928;8.474;2023-05-10T07:08:46;1.55;;;1.20;;
76065;SDS011;64763;48.928;8.474;2023-05-10T07:11:11;1.85;;;1.00;;
76065;SDS011;64763;48.928;8.474;2023-05-10T07:13:37;2.75;;;1.40;;
76065;SDS011;64763;48.928;8.474;2023-05-10T07:16:04;2.35;;;1.52;;
76065;SDS011;64763;48.928;8.474;2023-05-10T07:18:31;2.85;;;1.80;;
76065;SDS011;64763;48.928;8.474;2023-05-10T07:20:56;2.28;;;1.40;;
76065;SDS011;64763;48.928;8.474;2023-05-10T07:23:22;4.22;;;1.63;;
76065;SDS011;64763;48.928;8.474;2023-05-10T07:25:48;1.92;;;1.40;;
76065;SDS011;64763;48.928;8.474;2023-05-10T07:28:14;2.47;;;1.35;;
76065;SDS011;64763;48.928;8.474;2023-05-10T07:30:40;1.60;;;1.20;;
76065;SDS011;64763;48.928;8.474;2023-05-10T07:33:06;4.13;;;1.40;;
76065;SDS011;64763;48.928;8.474;2023-05-10T07:35:33;4.15;;;1.60;;
76065;SDS011;64763;48.928;8.474;2023-05-10T07:37:58;1.98;;;1.35;;
76065;SDS011;64763;48.928;8.474;2023-05-10T07:40:24;2.17;;;1.20;;
76065;SDS011;64763;48.928;8.474;2023-05-10T07:42:49;2.33;;;1.35;;
76065;SDS011;64763;48.928;8.474;2023-05-10T07:45:14;3.00;;;1.38;;
76065;SDS011;64763;48.928;8.474;2023-05-10T07:47:40;2.28;;;1.50;;
76065;SDS011;64763;48.928;8.474;2023-05-10T07:50:05;1.20;;;1.10;;
76065;SDS011;64763;48.928;8.474;2023-05-10T07:52:31;1.52;;;1.30;;
76065;SDS011;64763;48.928;8.474;2023-05-10T07:54:57;2.08;;;1.40;;
76065;SDS011;64763;48.928;8.474;2023-05-10T07:57:22;1.58;;;1.30;;
76065;SDS011;64763;48.928;8.474;2023-05-10T07:59:47;2.42;;;1.25;;
76065;SDS011;64763;48.928;8.474;2023-05-10T08:02:13;2.17;;;1.13;;
76065;SDS011;64763;48.928;8.474;2023-05-10T08:04:38;2.25;;;1.40;;
76065;SDS011;64763;48.928;8.474;2023-05-10T08:07:03;2.70;;;1.27;;
76065;SDS011;64763;48.928;8.474;2023-05-10T08:09:29;2.70;;;1.08;;
76065;SDS011;64763;48.928;8.474;2023-05-10T08:11:54;1.23;;;0.95;;
76065;SDS011;64763;48.928;8.474;2023-05-10T08:14:20;2.25;;;1.35;;
76065;SDS011;64763;48.928;8.474;2023-05-10T08:16:45;2.22;;;1.23;;
76065;SDS011;64763;48.928;8.474;2023-05-10T08:19:11;3.00;;;1.02;;
76065;SDS011;64763;48.928;8.474;2023-05-10T08:21:36;1.60;;;1.25;;
76065;SDS011;64763;48.928;8.474;2023-05-10T08:24:02;1.58;;;1.13;;
76065;SDS011;64763;48.928;8.474;2023-05-10T08:26:27;3.78;;;1.50;;
76065;SDS011;64763;48.928;8.474;2023-05-10T08:28:53;3.90;;;1.63;;
76065;SDS011;64763;48.928;8.474;2023-05-10T08:31:18;2.97;;;1.50;;
76065;SDS011;64763;48.928;8.474;2023-05-10T08:33:43;1.88;;;1.30;;
76065;SDS011;64763;48.928;8.474;2023-05-10T08:36:09;2.38;;;1.23;;
76065;SDS011;64763;48.928;8.474;2023-05-10T08:38:34;3.67;;;1.50;;
76065;SDS011;64763;48.928;8.474;2023-05-10T08:41:02;1.70;;;1.50;;
76065;SDS011;64763;48.928;8.474;2023-05-10T08:43:28;1.67;;;1.10;;
76065;SDS011;64763;48.928;8.474;2023-05-10T08:45:54;3.72;;;1.33;;
76065;SDS011;64763;48.928;8.474;2023-05-10T08:48:20;1.85;;;1.40;;
76065;SDS011;64763;48.928;8.474;2023-05-10T08:50:48;2.40;;;1.40;;
76065;SDS011;64763;48.928;8.474;2023-05-10T08:53:17;2.03;;;1.40;;
76065;SDS011;64763;48.928;8.474;2023-05-10T08:55:43;2.95;;;1.40;;
76065;SDS011;64763;48.928;8.474;2023-05-10T08:58:09;2.38;;;1.42;;
76065;SDS011;64763;48.928;8.474;2023-05-10T09:00:34;2.95;;;1.30;;
76065;SDS011;64763;48.928;8.474;2023-05-10T09:03:00;1.42;;;1.15;;
76065;SDS011;64763;48.928;8.474;2023-05-10T09:05:26;1.73;;;1.30;;
76065;SDS011;64763;48.928;8.474;2023-05-10T09:07:51;1.83;;;1.30;;
76065;SDS011;64763;48.928;8.474;2023-05-10T09:10:17;3.58;;;1.50;;
76065;SDS011;64763;48.928;8.474;2023-05-10T09:12:44;3.50;;;1.35;;
76065;SDS011;64763;48.928;8.474;2023-05-10T09:15:10;1.73;;;1.30;;
76065;SDS011;64763;48.928;8.474;2023-05-10T09:17:36;2.03;;;1.58;;
76065;SDS011;64763;48.928;8.474;2023-05-10T09:20:02;1.83;;;1.35;;
76065;SDS011;64763;48.928;8.474;2023-05-10T09:22:29;2.85;;;1.70;;
76065;SDS011;64763;48.928;8.474;2023-05-10T09:25:05;3.13;;;1.60;;
76065;SDS011;64763;48.928;8.474;2023-05-10T09:27:41;1.77;;;1.30;;
76065;SDS011;64763;48.928;8.474;2023-05-10T09:30:10;2.47;;;1.70;;
76065;SDS011;64763;48.928;8.474;2023-05-10T09:32:39;2.33;;;1.52;;
76065;SDS011;64763;48.928;8.474;2023-05-10T09:35:23;2.22;;;1.38;;
76065;SDS011;64763;48.928;8.474;2023-05-10T09:37:50;2.58;;;1.30;;
76065;SDS011;64763;48.928;8.474;2023-05-10T09:40:25;2.00;;;1.40;;
76065;SDS011;64763;48.928;8.474;2023-05-10T09:42:54;2.28;;;1.67;;
76065;SDS011;64763;48.928;8.474;2023-05-10T09:45:38;2.97;;;1.60;;
76065;SDS011;64763;48.928;8.474;2023-05-10T09:48:06;4.45;;;1.60;;
76065;SDS011;64763;48.928;8.474;2023-05-10T09:50:31;4.40;;;1.70;;
76065;SDS011;64763;48.928;8.474;2023-05-10T09:53:00;2.70;;;1.70;;
76065;SDS011;64763;48.928;8.474;2023-05-10T09:55:40;3.13;;;1.70;;
76065;SDS011;64763;48.928;8.474;2023-05-10T09:58:09;3.25;;;1.90;;
76065;SDS011;64763;48.928;8.474;2023-05-10T10:00:38;3.53;;;1.77;;
76065;SDS011;64763;48.928;8.474;2023-05-10T10:03:04;3.25;;;2.00;;
76065;SDS011;64763;48.928;8.474;2023-05-10T10:05:31;2.53;;;1.80;;
76065;SDS011;64763;48.928;8.474;2023-05-10T10:07:57;3.38;;;1.60;;
76065;SDS011;64763;48.928;8.474;2023-05-10T10:10:26;3.88;;;1.73;;
76065;SDS011;64763;48.928;8.474;2023-05-10T10:12:52;2.67;;;1.60;;
76065;SDS011;64763;48.928;8.474;2023-05-10T10:15:18;2.45;;;1.67;;
76065;SDS011;64763;48.928;8.474;2023-05-10T10:17:43;3.55;;;1.70;;
76065;SDS011;64763;48.928;8.474;2023-05-10T10:20:09;5.53;;;1.60;;
76065;SDS011;64763;48.928;8.474;2023-05-10T10:22:35;2.63;;;1.90;;
76065;SDS011;64763;48.928;8.474;2023-05-10T10:25:01;2.63;;;1.52;;
76065;SDS011;64763;48.928;8.474;2023-05-10T10:27:35;4.47;;;1.92;;
76065;SDS011;64763;48.928;8.474;2023-05-10T10:35:46;4.55;;;2.13;;
76065;SDS011;64763;48.928;8.474;2023-05-10T10:38:14;3.70;;;2.28;;
76065;SDS011;64763;48.928;8.474;2023-05-10T10:40:39;3.10;;;2.35;;
76065;SDS011;64763;48.928;8.474;2023-05-10T10:43:24;3.80;;;2.30;;
76065;SDS011;64763;48.928;8.474;2023-05-10T10:46:12;3.40;;;2.40;;
76065;SDS011;64763;48.928;8.474;2023-05-10T10:48:40;6.25;;;2.72;;
76065;SDS011;64763;48.928;8.474;2023-05-10T10:51:06;4.00;;;2.55;;
76065;SDS011;64763;48.928;8.474;2023-05-10T10:53:31;3.47;;;2.40;;
76065;SDS011;64763;48.928;8.474;2023-05-10T10:56:07;4.45;;;2.50;;
76065;SDS011;64763;48.928;8.474;2023-05-10T10:58:35;4.55;;;2.55;;
76065;SDS011;64763;48.928;8.474;2023-05-10T11:01:11;4.28;;;2.50;;
76065;SDS011;64763;48.928;8.474;2023-05-10T11:03:38;3.63;;;2.25;;
76065;SDS011;64763;48.928;8.474;2023-05-10T11:06:03;4.60;;;2.60;;
76065;SDS011;64763;48.928;8.474;2023-05-10T11:08:29;6.68;;;2.58;;
76065;SDS011;64763;48.928;8.474;2023-05-10T11:19:10;4.15;;;2.10;;
76065;SDS011;64763;48.928;8.474;2023-05-10T11:22:11;3.50;;;1.90;;
76065;SDS011;64763;48.928;8.474;2023-05-10T11:24:40;2.60;;;1.48;;
76065;SDS011;64763;48.928;8.474;2023-05-10T11:27:21;2.67;;;1.50;;
76065;SDS011;64763;48.928;8.474;2023-05-10T11:29:48;2.67;;;1.67;;
76065;SDS011;64763;48.928;8.474;2023-05-10T11:32:16;3.10;;;1.42;;
76065;SDS011;64763;48.928;8.474;2023-05-10T11:34:42;2.50;;;1.48;;
76065;SDS011;64763;48.928;8.474;2023-05-10T11:37:07;2.00;;;1.73;;
76065;SDS011;64763;48.928;8.474;2023-05-10T11:39:32;5.38;;;1.67;;
76065;SDS011;64763;48.928;8.474;2023-05-10T11:41:58;2.83;;;1.50;;
76065;SDS011;64763;48.928;8.474;2023-05-10T11:44:29;5.20;;;1.40;;
76065;SDS011;64763;48.928;8.474;2023-05-10T11:46:57;2.10;;;1.17;;
76065;SDS011;64763;48.928;8.474;2023-05-10T11:49:23;1.70;;;1.17;;
76065;SDS011;64763;48.928;8.474;2023-05-10T11:51:50;2.15;;;1.30;;
76065;SDS011;64763;48.928;8.474;2023-05-10T11:54:15;2.15;;;1.45;;
76065;SDS011;64763;48.928;8.474;2023-05-10T11:56:40;5.68;;;1.20;;
76065;SDS011;64763;48.928;8.474;2023-05-10T11:59:06;2.88;;;1.30;;
76065;SDS011;64763;48.928;8.474;2023-05-10T12:01:33;2.13;;;1.30;;
76065;SDS011;64763;48.928;8.474;2023-05-10T12:03:58;4.72;;;1.30;;
76065;SDS011;64763;48.928;8.474;2023-05-10T12:06:28;2.10;;;1.30;;
76065;SDS011;64763;48.928;8.474;2023-05-10T12:08:56;2.53;;;1.58;;
76065;SDS011;64763;48.928;8.474;2023-05-10T12:11:24;2.67;;;1.23;;
76065;SDS011;64763;48.928;8.474;2023-05-10T12:13:50;3.30;;;1.38;;
76065;SDS011;64763;48.928;8.474;2023-05-10T12:16:17;2.72;;;1.20;;
76065;SDS011;64763;48.928;8.474;2023-05-10T12:18:49;3.13;;;1.30;;
76065;SDS011;64763;48.928;8.474;2023-05-10T12:21:19;2.42;;;1.30;;
76065;SDS011;64763;48.928;8.474;2023-05-10T12:23:46;3.53;;;1.33;;
76065;SDS011;64763;48.928;8.474;2023-05-10T12:26:12;1.63;;;0.90;;
76065;SDS011;64763;48.928;8.474;2023-05-10T12:28:37;2.03;;;1.20;;
76065;SDS011;64763;48.928;8.474;2023-05-10T12:31:04;2.20;;;1.20;;
76065;SDS011;64763;48.928;8.474;2023-05-10T12:33:41;2.55;;;1.48;;
76065;SDS011;64763;48.928;8.474;2023-05-10T12:36:08;1.63;;;1.25;;
76065;SDS011;64763;48.928;8.474;2023-05-10T12:38:38;1.90;;;1.30;;
76065;SDS011;64763;48.928;8.474;2023-05-10T12:41:08;2.28;;;1.20;;
76065;SDS011;64763;48.928;8.474;2023-05-10T12:43:35;2.65;;;1.40;;
76065;SDS011;64763;48.928;8.474;2023-05-10T12:46:07;2.50;;;1.40;;
76065;SDS011;64763;48.928;8.474;2023-05-10T12:48:36;4.63;;;1.42;;
76065;SDS011;64763;48.928;8.474;2023-05-10T12:51:03;2.72;;;1.27;;
76065;SDS011;64763;48.928;8.474;2023-05-10T12:53:29;2.67;;;1.10;;
76065;SDS011;64763;48.928;8.474;2023-05-10T12:55:54;2.85;;;1.77;;
76065;SDS011;64763;48.928;8.474;2023-05-10T12:58:20;1.42;;;1.10;;
76065;SDS011;64763;48.928;8.474;2023-05-10T13:00:45;2.05;;;1.35;;
76065;SDS011;64763;48.928;8.474;2023-05-10T13:03:11;2.88;;;1.60;;
76065;SDS011;64763;48.928;8.474;2023-05-10T13:05:36;2.67;;;1.77;;
76065;SDS011;64763;48.928;8.474;2023-05-10T13:08:02;2.65;;;1.60;;
76065;SDS011;64763;48.928;8.474;2023-05-10T13:10:29;2.55;;;1.30;;
76065;SDS011;64763;48.928;8.474;2023-05-10T13:12:55;2.42;;;1.20;;
76065;SDS011;64763;48.928;8.474;2023-05-10T13:15:20;2.45;;;1.40;;
76065;SDS011;64763;48.928;8.474;2023-05-10T13:17:46;1.63;;;1.30;;
76065;SDS011;64763;48.928;8.474;2023-05-10T13:20:11;3.05;;;1.30;;
76065;SDS011;64763;48.928;8.474;2023-05-10T13:22:36;3.15;;;1.40;;
76065;SDS011;64763;48.928;8.474;2023-05-10T13:25:02;2.15;;;1.38;;
76065;SDS011;64763;48.928;8.474;2023-05-10T13:27:27;2.28;;;1.60;;
76065;SDS011;64763;48.928;8.474;2023-05-10T13:29:53;2.55;;;1.40;;
76065;SDS011;64763;48.928;8.474;2023-05-10T13:32:18;1.98;;;1.33;;
76065;SDS011;64763;48.928;8.474;2023-05-10T13:34:43;2.22;;;1.52;;
76065;SDS011;64763;48.928;8.474;2023-05-10T13:37:09;3.80;;;1.95;;
76065;SDS011;64763;48.928;8.474;2023-05-10T13:39:34;2.33;;;1.45;;
76065;SDS011;64763;48.928;8.474;2023-05-10T13:42:02;1.77;;;1.38;;
76065;SDS011;64763;48.928;8.474;2023-05-10T13:44:28;3.53;;;2.35;;
76065;SDS011;64763;48.928;8.474;2023-05-10T13:46:53;2.35;;;1.60;;
76065;SDS011;64763;48.928;8.474;2023-05-10T13:49:18;3.40;;;1.50;;
76065;SDS011;64763;48.928;8.474;2023-05-10T13:51:44;1.80;;;1.13;;
76065;SDS011;64763;48.928;8.474;2023-05-10T13:54:09;3.28;;;1.75;;
76065;SDS011;64763;48.928;8.474;2023-05-10T13:56:34;3.92;;;1.33;;
76065;SDS011;64763;48.928;8.474;2023-05-10T13:59:00;1.83;;;1.30;;
76065;SDS011;64763;48.928;8.474;2023-05-10T14:01:25;2.22;;;1.60;;
76065;SDS011;64763;48.928;8.474;2023-05-10T14:03:51;2.30;;;1.45;;
76065;SDS011;64763;48.928;8.474;2023-05-10T14:06:16;3.15;;;1.27;;
76065;SDS011;64763;48.928;8.474;2023-05-10T14:08:42;2.60;;;1.30;;
76065;SDS011;64763;48.928;8.474;2023-05-10T14:11:07;2.92;;;1.20;;
76065;SDS011;64763;48.928;8.474;2023-05-10T14:13:33;4.25;;;1.50;;
76065;SDS011;64763;48.928;8.474;2023-05-10T14:15:58;5.32;;;1.60;;
76065;SDS011;64763;48.928;8.474;2023-05-10T14:18:25;1.98;;;1.00;;
76065;SDS011;64763;48.928;8.474;2023-05-10T14:20:53;4.03;;;1.35;;
76065;SDS011;64763;48.928;8.474;2023-05-10T14:23:19;5.20;;;1.40;;
76065;SDS011;64763;48.928;8.474;2023-05-10T14:25:48;2.53;;;1.20;;
76065;SDS011;64763;48.928;8.474;2023-05-10T14:28:14;2.88;;;1.40;;
76065;SDS011;64763;48.928;8.474;2023-05-10T14:30:40;1.55;;;1.15;;
76065;SDS011;64763;48.928;8.474;2023-05-10T14:33:06;1.17;;;1.00;;
76065;SDS011;64763;48.928;8.474;2023-05-10T14:35:32;3.22;;;1.48;;
76065;SDS011;64763;48.928;8.474;2023-05-10T14:37:58;2.55;;;1.13;;
76065;SDS011;64763;48.928;8.474;2023-05-10T14:40:23;1.85;;;1.27;;
76065;SDS011;64763;48.928;8.474;2023-05-10T14:42:49;1.85;;;1.20;;
76065;SDS011;64763;48.928;8.474;2023-05-10T14:45:15;2.45;;;1.38;;
76065;SDS011;64763;48.928;8.474;2023-05-10T14:47:40;1.98;;;1.20;;
76065;SDS011;64763;48.928;8.474;2023-05-10T14:50:06;1.60;;;1.30;;
76065;SDS011;64763;48.928;8.474;2023-05-10T14:52:32;2.15;;;1.30;;
76065;SDS011;64763;48.928;8.474;2023-05-10T14:54:57;1.75;;;1.25;;
76065;SDS011;64763;48.928;8.474;2023-05-10T14:57:24;1.75;;;1.30;;
76065;SDS011;64763;48.928;8.474;2023-05-10T14:59:49;1.60;;;1.10;;
76065;SDS011;64763;48.928;8.474;2023-05-10T15:02:14;1.92;;;0.95;;
76065;SDS011;64763;48.928;8.474;2023-05-10T15:04:40;1.42;;;1.08;;
76065;SDS011;64763;48.928;8.474;2023-05-10T15:07:05;4.28;;;1.38;;
76065;SDS011;64763;48.928;8.474;2023-05-10T15:09:30;1.40;;;1.13;;
76065;SDS011;64763;48.928;8.474;2023-05-10T15:11:56;2.60;;;1.30;;
76065;SDS011;64763;48.928;8.474;2023-05-10T15:14:21;1.52;;;1.00;;
76065;SDS011;64763;48.928;8.474;2023-05-10T15:16:47;1.20;;;0.90;;
76065;SDS011;64763;48.928;8.474;2023-05-10T15:19:13;3.30;;;1.15;;
76065;SDS011;64763;48.928;8.474;2023-05-10T15:21:38;1.88;;;1.17;;
76065;SDS011;64763;48.928;8.474;2023-05-10T15:24:06;3.50;;;1.20;;